Time;durP1;ratioP1;P1;durP2;ratioP2;P2;SDS_P1;SDS_P2;PMS_P1;PMS_P2;Temp;Humidity;BMP_temperature;BMP_pressure;BME280_temperature;BME280_humidity;BME280_pressure;Samples;Min_cycle;Max_cycle;Signal;HPM_P1;HPM_P2
2023/09/02 00:02:20;;;;;;;3.93;3.40;;;21.00;99.90;;;;;;5038648;28;20177;-84
2023/09/02 00:04:46;;;;;;;3.40;3.10;;;21.00;99.90;;;;;;5039069;28;20171;-84
2023/09/02 00:07:12;;;;;;;3.70;3.27;;;21.00;99.90;;;;;;5054973;28;20180;-84
2023/09/02 00:09:37;;;;;;;3.30;3.00;;;21.10;99.90;;;;;;5055295;28;20457;-84
2023/09/02 00:12:03;;;;;;;3.60;3.40;;;21.10;99.90;;;;;;5056909;28;20263;-84
2023/09/02 00:14:29;;;;;;;3.80;3.40;;;21.00;99.90;;;;;;5038497;28;20172;-84
2023/09/02 00:16:54;;;;;;;3.30;3.00;;;21.00;99.90;;;;;;5022011;28;20203;-84
2023/09/02 00:19:21;;;;;;;3.50;3.20;;;21.00;99.90;;;;;;5038528;28;20165;-84
2023/09/02 00:21:47;;;;;;;2.97;2.70;;;21.00;99.90;;;;;;5038387;28;20175;-84
2023/09/02 00:24:12;;;;;;;3.40;3.10;;;21.00;99.90;;;;;;5056349;28;20169;-84
2023/09/02 00:26:38;;;;;;;3.33;3.03;;;21.00;99.80;;;;;;5056335;28;20482;-84
2023/09/02 00:29:04;;;;;;;3.13;2.90;;;21.00;99.80;;;;;;5039551;28;20183;-84
2023/09/02 00:31:30;;;;;;;3.10;2.90;;;21.00;99.80;;;;;;5037347;28;20461;-84
2023/09/02 00:33:55;;;;;;;3.30;3.00;;;21.00;99.90;;;;;;5037916;28;20176;-86
2023/09/02 00:36:21;;;;;;;3.53;3.03;;;21.00;99.90;;;;;;5037249;28;20226;-85
2023/09/02 00:38:48;;;;;;;3.30;3.00;;;21.00;99.80;;;;;;5037678;28;20208;-85
2023/09/02 00:41:25;;;;;;;3.20;2.90;;;21.00;99.90;;;;;;5037030;28;20613;-85
2023/09/02 00:43:52;;;;;;;3.20;3.00;;;21.00;99.70;;;;;;5053589;28;20175;-84
2023/09/02 00:46:18;;;;;;;3.17;2.90;;;21.00;99.70;;;;;;5037454;28;20169;-84
2023/09/02 00:48:44;;;;;;;3.50;3.20;;;21.00;99.60;;;;;;5036826;28;20184;-85
2023/09/02 00:51:10;;;;;;;3.10;2.90;;;21.00;99.60;;;;;;5036139;28;20215;-85
2023/09/02 00:53:35;;;;;;;2.97;2.77;;;21.00;99.60;;;;;;5037140;28;20583;-84
2023/09/02 00:56:01;;;;;;;3.20;2.87;;;21.00;99.60;;;;;;5037471;28;20195;-84
2023/09/02 00:58:27;;;;;;;3.20;3.00;;;21.00;99.60;;;;;;5037163;28;20236;-84
2023/09/02 01:00:53;;;;;;;3.07;2.87;;;21.00;99.50;;;;;;5037725;28;20180;-84
2023/09/02 01:03:19;;;;;;;2.90;2.70;;;21.00;99.50;;;;;;5036928;28;20204;-84
2023/09/02 01:05:45;;;;;;;3.20;2.90;;;21.00;99.50;;;;;;5036801;28;20203;-84
2023/09/02 01:08:12;;;;;;;3.30;3.00;;;21.00;99.50;;;;;;5037525;28;20200;-84
2023/09/02 01:10:37;;;;;;;2.87;2.67;;;21.00;99.50;;;;;;5036957;28;20543;-84
2023/09/02 01:13:04;;;;;;;3.00;2.80;;;21.00;99.50;;;;;;5037167;28;20638;-84
2023/09/02 01:15:30;;;;;;;3.10;2.77;;;21.00;99.70;;;;;;5036274;28;20187;-84
2023/09/02 01:17:56;;;;;;;3.30;3.00;;;21.00;99.40;;;;;;5036288;28;20200;-84
2023/09/02 01:20:27;;;;;;;3.00;2.80;;;21.00;99.40;;;;;;5036034;28;20449;-84
2023/09/02 01:23:14;;;;;;;2.70;2.50;;;21.00;99.40;;;;;;5036423;28;20180;-84
2023/09/02 01:26:14;;;;;;;3.00;2.80;;;21.00;99.30;;;;;;5053297;28;20604;-84
2023/09/02 01:28:42;;;;;;;3.30;2.60;;;21.00;99.30;;;;;;5035371;28;20539;-84
2023/09/02 01:31:12;;;;;;;2.90;2.70;;;21.00;99.30;;;;;;5035657;28;20229;-84
2023/09/02 01:33:40;;;;;;;2.83;2.63;;;21.00;99.20;;;;;;5053253;28;20167;-84
2023/09/02 01:36:06;;;;;;;3.20;2.90;;;21.00;99.20;;;;;;5036873;28;20498;-84
2023/09/02 01:38:33;;;;;;;2.90;2.70;;;21.00;99.20;;;;;;5036323;28;20203;-84
2023/09/02 01:41:04;;;;;;;3.27;2.97;;;21.00;99.30;;;;;;5053958;28;20164;-84
2023/09/02 01:43:32;;;;;;;3.03;2.80;;;20.90;99.20;;;;;;5034936;28;20181;-84
2023/09/02 01:45:58;;;;;;;2.93;2.73;;;20.90;99.30;;;;;;5052236;28;20342;-84
2023/09/02 01:48:26;;;;;;;2.87;2.67;;;20.90;99.20;;;;;;5034182;28;20237;-84
2023/09/02 01:50:52;;;;;;;3.00;2.80;;;20.90;99.20;;;;;;5031386;28;20261;-84
2023/09/02 01:53:18;;;;;;;3.20;2.83;;;20.90;99.20;;;;;;5033959;28;20241;-84
2023/09/02 01:55:46;;;;;;;3.00;2.73;;;20.90;99.20;;;;;;5034043;28;20499;-84
2023/09/02 01:58:11;;;;;;;2.80;2.60;;;20.90;99.10;;;;;;5033682;28;20204;-84
2023/09/02 02:00:39;;;;;;;3.00;2.80;;;20.90;99.10;;;;;;5034330;28;20169;-84
2023/09/02 02:03:10;;;;;;;2.97;2.77;;;20.90;99.20;;;;;;5035327;28;20196;-84
2023/09/02 02:05:42;;;;;;;2.80;2.60;;;20.90;99.10;;;;;;5034944;28;20172;-84
2023/09/02 02:08:15;;;;;;;3.00;2.80;;;20.90;99.10;;;;;;5035283;28;20177;-84
2023/09/02 02:10:43;;;;;;;2.80;2.60;;;20.90;99.20;;;;;;5035267;28;20186;-84
2023/09/02 02:13:08;;;;;;;3.17;2.87;;;20.90;99.40;;;;;;5035721;28;20183;-84
2023/09/02 02:15:34;;;;;;;2.83;2.63;;;20.90;99.10;;;;;;5035173;28;20169;-84
2023/09/02 02:18:00;;;;;;;2.70;2.50;;;20.80;99.20;;;;;;5034571;28;20242;-84
2023/09/02 02:20:37;;;;;;;2.90;2.70;;;20.90;99.10;;;;;;5034386;28;20266;-84
2023/09/02 02:23:03;;;;;;;2.70;2.50;;;20.90;99.00;;;;;;5035486;28;20168;-84
2023/09/02 02:25:29;;;;;;;2.67;2.47;;;20.90;99.00;;;;;;5035395;28;20230;-84
2023/09/02 02:27:54;;;;;;;2.80;2.60;;;20.90;99.00;;;;;;5034526;28;20483;-84
2023/09/02 02:30:20;;;;;;;2.70;2.50;;;20.90;99.20;;;;;;5043702;28;20179;-84
2023/09/02 02:32:46;;;;;;;2.77;2.57;;;20.90;98.90;;;;;;5035819;28;20196;-84
2023/09/02 02:35:12;;;;;;;2.70;2.50;;;20.90;98.90;;;;;;5035003;28;20556;-84
2023/09/02 02:37:38;;;;;;;2.63;2.43;;;20.90;98.90;;;;;;5036148;28;20204;-84
2023/09/02 02:40:05;;;;;;;2.80;2.60;;;20.90;98.90;;;;;;5035958;28;20181;-84
2023/09/02 02:42:30;;;;;;;2.57;2.37;;;20.90;98.90;;;;;;5036294;28;20217;-84
2023/09/02 02:44:56;;;;;;;2.80;2.60;;;20.90;98.80;;;;;;5036917;28;20164;-84
2023/09/02 02:47:22;;;;;;;2.80;2.60;;;20.90;98.80;;;;;;5036881;28;20178;-84
2023/09/02 02:49:47;;;;;;;2.90;2.60;;;20.90;98.90;;;;;;5035637;28;20278;-84
2023/09/02 02:52:13;;;;;;;2.50;2.30;;;20.90;98.90;;;;;;5036675;28;20176;-84
2023/09/02 02:54:39;;;;;;;2.47;2.27;;;20.90;98.80;;;;;;5035214;28;20203;-84
2023/09/02 02:57:04;;;;;;;2.40;2.30;;;20.90;98.80;;;;;;5036548;28;20172;-85
2023/09/02 02:59:30;;;;;;;2.57;2.37;;;20.90;98.80;;;;;;5035021;28;20172;-85
2023/09/02 03:01:56;;;;;;;2.50;2.30;;;20.90;98.80;;;;;;5035500;28;20205;-84
2023/09/02 03:04:21;;;;;;;2.47;2.27;;;20.90;98.80;;;;;;5036449;28;20283;-84
2023/09/02 03:06:47;;;;;;;2.50;2.30;;;20.80;98.80;;;;;;5035887;28;20176;-84
2023/09/02 03:09:13;;;;;;;2.43;2.23;;;20.90;98.80;;;;;;5034690;28;20558;-84
2023/09/02 03:11:39;;;;;;;2.67;2.47;;;20.90;98.80;;;;;;5035076;28;20475;-84
2023/09/02 03:14:04;;;;;;;2.67;2.47;;;20.80;98.80;;;;;;5036532;28;20455;-85
2023/09/02 03:16:30;;;;;;;2.60;2.40;;;20.80;98.80;;;;;;5036084;28;20524;-85
2023/09/02 03:19:04;;;;;;;2.70;2.50;;;20.90;98.80;;;;;;5051966;28;20219;-85
2023/09/02 03:21:30;;;;;;;2.97;2.73;;;20.90;98.70;;;;;;5034313;28;20525;-84
2023/09/02 03:23:56;;;;;;;2.87;2.67;;;20.90;98.70;;;;;;5034978;28;20627;-84
2023/09/02 03:26:24;;;;;;;2.70;2.50;;;20.90;98.70;;;;;;5034914;28;20220;-85
2023/09/02 03:28:50;;;;;;;2.70;2.50;;;20.80;98.70;;;;;;5055016;28;20264;-84
2023/09/02 03:31:16;;;;;;;2.40;2.20;;;20.80;98.70;;;;;;5037845;28;20241;-85
2023/09/02 03:33:42;;;;;;;2.40;2.20;;;20.80;98.80;;;;;;5056792;28;20180;-85
2023/09/02 03:36:07;;;;;;;2.50;2.30;;;20.80;98.80;;;;;;5038359;28;20207;-84
2023/09/02 03:38:33;;;;;;;2.30;2.10;;;20.80;98.80;;;;;;5038563;28;20195;-84
2023/09/02 03:40:59;;;;;;;2.27;2.07;;;20.80;98.80;;;;;;5037576;28;20234;-85
2023/09/02 03:43:25;;;;;;;2.47;2.27;;;20.80;98.80;;;;;;5037350;28;20180;-84
2023/09/02 03:45:50;;;;;;;2.37;2.17;;;20.80;98.70;;;;;;5037246;28;20180;-84
2023/09/02 03:48:19;;;;;;;2.30;2.10;;;20.80;98.70;;;;;;5037875;28;20181;-84
2023/09/02 03:51:05;;;;;;;2.50;2.30;;;20.80;98.60;;;;;;5037708;28;20375;-85
2023/09/02 03:53:40;;;;;;;2.40;2.20;;;20.80;98.70;;;;;;5054466;28;20168;-85
2023/09/02 03:56:05;;;;;;;2.47;2.27;;;20.80;98.70;;;;;;5056194;28;20321;-84
2023/09/02 03:58:31;;;;;;;2.60;2.40;;;20.80;98.80;;;;;;5038754;28;20306;-84
2023/09/02 04:00:58;;;;;;;2.50;2.30;;;20.80;98.70;;;;;;5039099;28;20176;-84
2023/09/02 04:03:25;;;;;;;2.40;2.20;;;20.80;98.70;;;;;;5038402;28;20665;-85
2023/09/02 04:05:52;;;;;;;2.40;2.20;;;20.80;98.70;;;;;;5038735;28;20180;-85
2023/09/02 04:08:21;;;;;;;2.43;2.23;;;20.80;98.70;;;;;;5037906;28;20176;-85
2023/09/02 04:10:51;;;;;;;2.10;2.00;;;20.80;98.70;;;;;;5038111;28;20187;-84
2023/09/02 04:13:19;;;;;;;2.20;2.00;;;20.80;98.70;;;;;;5039234;28;20719;-84
2023/09/02 04:15:45;;;;;;;2.13;2.03;;;20.80;99.00;;;;;;5038742;28;20182;-84
2023/09/02 04:18:11;;;;;;;2.13;2.00;;;20.80;98.60;;;;;;5038948;28;20208;-84
2023/09/02 04:20:37;;;;;;;2.27;2.07;;;20.80;98.70;;;;;;5038719;28;20179;-84
2023/09/02 04:23:03;;;;;;;2.50;2.30;;;20.80;98.60;;;;;;5056050;28;20520;-84
2023/09/02 04:25:28;;;;;;;2.20;2.10;;;20.80;98.60;;;;;;5038847;28;20219;-84
2023/09/02 04:27:54;;;;;;;2.40;2.23;;;20.80;98.60;;;;;;5038594;28;20470;-84
2023/09/02 04:30:44;;;;;;;2.43;2.23;;;20.80;98.50;;;;;;5056746;28;20229;-86
2023/09/02 04:33:11;;;;;;;2.20;2.10;;;20.80;98.50;;;;;;5040347;28;20574;-85
2023/09/02 04:35:43;;;;;;;2.40;2.20;;;20.80;98.60;;;;;;5053789;28;20381;-85
2023/09/02 04:38:09;;;;;;;2.00;1.90;;;20.80;98.50;;;;;;5036034;28;20587;-85
2023/09/02 04:40:37;;;;;;;2.60;2.40;;;20.80;98.50;;;;;;5036531;28;20232;-85
2023/09/02 04:43:06;;;;;;;2.10;1.90;;;20.80;98.60;;;;;;5038115;28;20176;-85
2023/09/02 04:45:36;;;;;;;2.20;2.00;;;20.80;98.50;;;;;;5054322;28;20177;-84
2023/09/02 04:48:03;;;;;;;2.20;2.10;;;20.80;98.50;;;;;;5036890;28;20174;-85
2023/09/02 04:50:30;;;;;;;2.23;2.03;;;20.80;98.50;;;;;;5037030;28;20211;-85
2023/09/02 04:52:57;;;;;;;2.00;1.90;;;20.80;98.40;;;;;;5037716;28;20470;-85
2023/09/02 04:55:24;;;;;;;2.20;2.10;;;20.80;98.50;;;;;;5037282;28;20533;-85
2023/09/02 04:57:54;;;;;;;2.37;2.17;;;20.80;98.40;;;;;;5053605;28;20367;-85
2023/09/02 05:00:24;;;;;;;2.20;2.00;;;20.80;98.40;;;;;;5036257;28;20259;-85
2023/09/02 05:02:50;;;;;;;2.90;2.00;;;20.80;98.50;;;;;;5035613;28;20226;-85
2023/09/02 05:05:18;;;;;;;2.23;2.03;;;20.70;98.40;;;;;;5036441;28;20182;-84
2023/09/02 05:07:44;;;;;;;2.20;2.10;;;20.70;98.40;;;;;;5054044;28;20539;-85
2023/09/02 05:10:12;;;;;;;2.00;1.90;;;20.80;98.50;;;;;;5052393;28;20187;-84
2023/09/02 05:12:38;;;;;;;2.17;2.07;;;20.70;98.50;;;;;;5033857;28;20250;-85
2023/09/02 05:15:04;;;;;;;2.20;2.10;;;20.80;98.40;;;;;;5035045;28;20234;-85
2023/09/02 05:17:33;;;;;;;2.13;2.03;;;20.80;98.50;;;;;;5036306;28;20208;-85
2023/09/02 05:20:00;;;;;;;2.23;2.07;;;20.70;98.40;;;;;;5034701;28;20497;-85
2023/09/02 05:22:26;;;;;;;2.00;1.90;;;20.70;98.50;;;;;;5051643;28;20161;-85
2023/09/02 05:24:52;;;;;;;1.97;1.87;;;20.70;98.50;;;;;;5035773;28;20279;-85
2023/09/02 05:27:19;;;;;;;2.10;2.00;;;20.70;98.40;;;;;;5034545;28;20187;-84
2023/09/02 05:29:45;;;;;;;2.00;1.90;;;20.70;98.40;;;;;;5035516;28;20281;-85
2023/09/02 05:32:13;;;;;;;2.13;2.03;;;20.70;98.40;;;;;;5035936;28;20759;-84
2023/09/02 05:34:42;;;;;;;2.10;2.00;;;20.70;98.60;;;;;;5036661;28;20176;-85
2023/09/02 05:37:18;;;;;;;1.93;1.83;;;20.70;98.50;;;;;;5036920;28;20223;-84
2023/09/02 05:39:43;;;;;;;2.00;1.90;;;20.70;98.60;;;;;;5036025;28;20237;-84
2023/09/02 05:42:09;;;;;;;2.10;2.00;;;20.70;98.60;;;;;;5052449;28;20543;-84
2023/09/02 05:44:34;;;;;;;2.00;1.90;;;20.60;98.70;;;;;;5034434;28;20172;-84
2023/09/02 05:47:01;;;;;;;2.00;1.90;;;20.60;98.80;;;;;;5053323;28;20686;-84
2023/09/02 05:49:26;;;;;;;2.00;1.90;;;20.60;98.90;;;;;;5035185;28;20184;-84
2023/09/02 05:51:52;;;;;;;1.90;1.80;;;20.50;99.00;;;;;;5034442;28;20277;-84
2023/09/02 05:54:18;;;;;;;1.83;1.70;;;20.50;99.00;;;;;;5035588;28;20355;-84
2023/09/02 05:56:46;;;;;;;1.90;1.80;;;20.50;99.10;;;;;;5075774;28;20523;-86
2023/09/02 05:59:13;;;;;;;2.00;1.90;;;20.50;99.00;;;;;;5064339;28;20277;-84
2023/09/02 06:01:40;;;;;;;1.90;1.80;;;20.50;98.90;;;;;;5042830;28;20238;-86
2023/09/02 06:04:06;;;;;;;1.90;1.80;;;20.60;99.00;;;;;;5068702;28;20243;-85
2023/09/02 06:06:32;;;;;;;2.00;1.90;;;20.60;99.00;;;;;;5037016;28;20172;-85
2023/09/02 06:08:57;;;;;;;1.90;1.80;;;20.60;98.70;;;;;;5035596;28;20184;-86
2023/09/02 06:11:23;;;;;;;2.03;1.83;;;20.70;98.70;;;;;;5034750;28;20569;-85
2023/09/02 06:13:49;;;;;;;1.90;1.80;;;20.70;98.50;;;;;;5034200;28;20207;-86
2023/09/02 06:16:15;;;;;;;1.90;1.80;;;20.80;98.40;;;;;;5033282;28;20167;-84
2023/09/02 06:18:40;;;;;;;1.90;1.80;;;20.80;98.20;;;;;;5033392;28;20498;-84
2023/09/02 06:21:12;;;;;;;1.90;1.80;;;20.90;98.20;;;;;;5032391;28;20186;-85
2023/09/02 06:23:43;;;;;;;2.10;2.00;;;20.90;98.00;;;;;;5032786;28;20580;-85
2023/09/02 06:26:09;;;;;;;1.87;1.77;;;20.90;98.10;;;;;;5032683;28;20173;-84
2023/09/02 06:28:35;;;;;;;1.87;1.77;;;20.90;98.00;;;;;;5031498;28;20172;-84
2023/09/02 06:31:05;;;;;;;1.97;1.87;;;20.90;98.00;;;;;;5065698;28;20542;-84
2023/09/02 06:33:31;;;;;;;1.80;1.70;;;20.90;98.00;;;;;;5033110;28;20172;-85
2023/09/02 06:35:57;;;;;;;1.90;1.80;;;20.90;98.00;;;;;;5033229;28;20191;-85
2023/09/02 06:38:23;;;;;;;1.90;1.80;;;20.90;98.10;;;;;;5033207;28;20265;-84
2023/09/02 06:40:49;;;;;;;2.00;1.80;;;20.90;98.10;;;;;;5050031;28;20171;-84
2023/09/02 06:43:14;;;;;;;1.90;1.80;;;21.00;98.30;;;;;;5032517;28;20173;-84
2023/09/02 06:45:40;;;;;;;2.00;1.90;;;21.00;98.10;;;;;;5064283;28;20207;-84
2023/09/02 06:48:06;;;;;;;2.03;1.80;;;21.00;98.10;;;;;;5031055;28;20191;-84
2023/09/02 06:50:31;;;;;;;1.80;1.70;;;21.00;98.10;;;;;;5063374;28;20191;-84
2023/09/02 06:52:57;;;;;;;2.17;1.97;;;21.00;98.20;;;;;;5031820;28;20524;-84
2023/09/02 06:55:23;;;;;;;2.87;2.00;;;21.00;98.10;;;;;;5065178;28;20192;-85
2023/09/02 06:57:49;;;;;;;2.70;1.70;;;21.00;98.10;;;;;;5030346;28;20364;-84
2023/09/02 07:00:15;;;;;;;1.97;1.70;;;21.00;98.10;;;;;;5056692;28;20191;-84
2023/09/02 07:02:42;;;;;;;2.07;1.87;;;21.00;98.30;;;;;;5052419;28;20185;-84
2023/09/02 07:05:08;;;;;;;1.97;1.77;;;21.10;98.10;;;;;;5053854;28;20374;-84
2023/09/02 07:07:36;;;;;;;2.00;1.90;;;21.10;97.90;;;;;;5036432;28;20505;-84
2023/09/02 07:10:03;;;;;;;1.70;1.60;;;21.10;98.00;;;;;;5052188;28;20191;-84
2023/09/02 07:12:29;;;;;;;1.80;1.70;;;21.10;97.80;;;;;;5051327;28;20275;-84
2023/09/02 07:14:54;;;;;;;2.03;1.90;;;21.10;97.90;;;;;;5052290;28;20175;-84
2023/09/02 07:17:20;;;;;;;2.30;1.80;;;21.10;97.80;;;;;;5035516;28;20212;-84
2023/09/02 07:19:46;;;;;;;2.00;1.80;;;21.20;97.80;;;;;;5036037;28;20195;-83
2023/09/02 07:22:11;;;;;;;2.20;2.00;;;21.10;97.60;;;;;;5067752;28;20326;-84
2023/09/02 07:24:37;;;;;;;1.67;1.57;;;21.10;97.70;;;;;;5035980;28;20264;-84
2023/09/02 07:27:04;;;;;;;1.80;1.70;;;21.20;97.70;;;;;;5069014;28;20172;-84
2023/09/02 07:29:29;;;;;;;2.00;1.80;;;21.20;97.40;;;;;;5036467;28;20247;-84
2023/09/02 07:31:58;;;;;;;2.67;2.07;;;21.00;97.60;;;;;;5054394;28;20172;-84
2023/09/02 07:34:24;;;;;;;1.93;1.60;;;21.00;98.00;;;;;;5035081;28;20175;-84
2023/09/02 07:36:50;;;;;;;2.03;1.83;;;21.00;97.70;;;;;;5066502;28;20334;-84
2023/09/02 07:39:16;;;;;;;1.80;1.70;;;21.00;97.80;;;;;;5033543;28;20199;-84
2023/09/02 07:41:42;;;;;;;2.23;1.80;;;21.00;98.30;;;;;;5034113;28;20535;-84
2023/09/02 07:44:09;;;;;;;2.13;1.90;;;21.10;97.90;;;;;;5034606;28;20317;-84
2023/09/02 07:46:35;;;;;;;2.63;1.90;;;21.10;97.80;;;;;;5033307;28;20195;-84
2023/09/02 07:49:00;;;;;;;2.10;1.90;;;21.20;98.30;;;;;;5032814;28;20470;-84
2023/09/02 07:51:26;;;;;;;2.73;2.00;;;21.20;98.30;;;;;;5032891;28;20187;-84
2023/09/02 07:53:52;;;;;;;2.33;1.93;;;21.30;98.20;;;;;;5050947;28;20331;-84
2023/09/02 07:56:17;;;;;;;2.17;1.83;;;21.20;98.00;;;;;;5034450;28;20172;-84
2023/09/02 07:58:46;;;;;;;1.80;1.70;;;21.30;98.40;;;;;;5034942;28;20215;-84
2023/09/02 08:01:12;;;;;;;2.90;1.90;;;21.30;98.20;;;;;;5033409;28;20176;-84
2023/09/02 08:03:38;;;;;;;1.93;1.70;;;21.40;98.30;;;;;;5034664;28;20361;-84
2023/09/02 08:06:08;;;;;;;2.53;1.73;;;21.40;98.00;;;;;;5034374;28;20211;-84
2023/09/02 08:08:35;;;;;;;4.27;1.90;;;21.50;98.10;;;;;;5051050;28;20260;-84
2023/09/02 08:11:06;;;;;;;2.80;2.00;;;21.50;98.10;;;;;;5031908;28;20278;-84
2023/09/02 08:13:32;;;;;;;2.67;2.20;;;21.50;98.00;;;;;;5050784;28;20182;-84
2023/09/02 08:16:02;;;;;;;3.03;1.80;;;21.50;98.30;;;;;;5030277;28;20239;-84
2023/09/02 08:18:28;;;;;;;2.63;2.00;;;21.50;98.20;;;;;;5033898;28;20223;-84
2023/09/02 08:20:54;;;;;;;4.57;1.93;;;21.50;98.10;;;;;;5032133;28;20172;-84
2023/09/02 08:23:19;;;;;;;3.20;1.90;;;21.50;98.10;;;;;;5048793;28;20519;-84
2023/09/02 08:25:45;;;;;;;2.23;1.80;;;21.50;98.20;;;;;;5049202;28;20267;-84
2023/09/02 08:28:11;;;;;;;2.37;1.77;;;21.60;98.10;;;;;;5052890;28;20436;-85
2023/09/02 08:30:40;;;;;;;5.73;1.93;;;21.70;97.90;;;;;;5065671;28;20180;-84
2023/09/02 08:33:06;;;;;;;1.83;1.63;;;21.90;97.50;;;;;;5035024;28;20252;-83
2023/09/02 08:35:38;;;;;;;3.40;2.00;;;22.00;97.30;;;;;;5032905;28;20279;-84
2023/09/02 08:38:04;;;;;;;4.27;1.97;;;22.10;97.00;;;;;;5051156;28;20228;-84
2023/09/02 08:40:31;;;;;;;3.23;2.07;;;22.00;97.00;;;;;;5033200;28;20180;-84
2023/09/02 08:42:59;;;;;;;3.00;1.63;;;22.00;97.00;;;;;;5032214;28;20347;-84
2023/09/02 08:45:28;;;;;;;2.67;1.80;;;22.00;96.90;;;;;;5033351;28;20169;-84
2023/09/02 08:47:58;;;;;;;1.83;1.73;;;22.00;96.80;;;;;;5032265;28;20238;-84
2023/09/02 08:50:26;;;;;;;1.80;1.70;;;22.00;96.80;;;;;;5067034;28;20172;-84
2023/09/02 08:52:52;;;;;;;1.87;1.67;;;22.00;96.80;;;;;;5031656;28;20223;-84
2023/09/02 08:55:19;;;;;;;2.07;1.87;;;22.00;96.70;;;;;;5066805;28;20481;-84
2023/09/02 08:57:45;;;;;;;3.57;1.90;;;22.10;96.80;;;;;;5032871;28;20555;-84
2023/09/02 09:00:11;;;;;;;2.03;1.80;;;22.00;96.80;;;;;;5032775;28;20177;-84
2023/09/02 09:02:38;;;;;;;2.80;1.97;;;22.00;96.80;;;;;;5030816;28;20241;-84
2023/09/02 09:05:06;;;;;;;2.10;1.90;;;22.10;96.80;;;;;;5031351;28;20271;-84
2023/09/02 09:07:32;;;;;;;1.90;1.70;;;22.10;96.70;;;;;;5030824;28;20347;-84
2023/09/02 09:09:59;;;;;;;1.73;1.63;;;22.10;96.60;;;;;;5063435;28;20471;-84
2023/09/02 09:12:28;;;;;;;1.90;1.80;;;22.20;96.50;;;;;;5031517;28;20184;-83
2023/09/02 09:14:56;;;;;;;2.33;1.80;;;22.30;96.30;;;;;;5030554;28;20415;-83
2023/09/02 09:17:23;;;;;;;2.00;1.80;;;22.40;96.00;;;;;;5032149;28;20242;-83
2023/09/02 09:19:49;;;;;;;2.23;1.80;;;22.60;95.90;;;;;;5032235;28;20496;-83
2023/09/02 09:22:15;;;;;;;2.77;2.07;;;22.70;95.30;;;;;;5048827;28;20175;-84
2023/09/02 09:24:41;;;;;;;3.07;1.90;;;22.90;94.90;;;;;;5065645;28;20461;-83
2023/09/02 09:27:07;;;;;;;1.87;1.63;;;23.20;94.30;;;;;;5029113;28;20206;-84
2023/09/02 09:29:42;;;;;;;2.40;1.73;;;23.30;93.70;;;;;;5047561;28;20678;-84
2023/09/02 09:32:10;;;;;;;1.70;1.60;;;23.50;93.20;;;;;;5029900;28;20224;-84
2023/09/02 09:34:40;;;;;;;1.70;1.60;;;23.70;92.70;;;;;;5028650;28;20311;-84
2023/09/02 09:37:08;;;;;;;1.77;1.57;;;23.80;92.10;;;;;;5029452;28;20641;-84
2023/09/02 09:39:47;;;;;;;2.00;1.60;;;23.90;91.80;;;;;;5030267;28;20168;-84
2023/09/02 09:42:15;;;;;;;1.90;1.70;;;24.00;91.50;;;;;;5028815;28;20230;-84
2023/09/02 09:45:07;;;;;;;1.83;1.73;;;24.10;91.20;;;;;;5030149;28;20176;-84
2023/09/02 09:47:33;;;;;;;2.70;1.80;;;24.20;91.20;;;;;;5025411;28;20184;-84
2023/09/02 09:50:16;;;;;;;1.83;1.60;;;24.10;91.10;;;;;;5029311;28;20187;-84
2023/09/02 09:53:02;;;;;;;2.10;1.80;;;24.20;91.20;;;;;;5033473;28;20208;-84
2023/09/02 09:55:29;;;;;;;1.73;1.60;;;24.10;91.50;;;;;;5045377;28;20468;-83
2023/09/02 09:57:57;;;;;;;1.90;1.70;;;24.10;91.40;;;;;;5028292;28;20314;-84
2023/09/02 10:00:51;;;;;;;1.53;1.43;;;24.00;91.50;;;;;;5030304;28;20180;-85
2023/09/02 10:03:16;;;;;;;1.90;1.60;;;24.00;91.60;;;;;;5029371;28;20602;-84
2023/09/02 10:05:43;;;;;;;1.60;1.50;;;23.90;91.70;;;;;;5028473;28;20168;-84
2023/09/02 10:08:09;;;;;;;1.80;1.60;;;23.90;91.80;;;;;;5030104;28;20207;-84
2023/09/02 10:10:39;;;;;;;1.83;1.70;;;23.90;91.90;;;;;;5031101;28;20175;-84
2023/09/02 10:13:05;;;;;;;1.63;1.52;;;23.90;91.90;;;;;;5046799;28;20510;-84
2023/09/02 10:15:32;;;;;;;2.58;1.60;;;24.00;91.90;;;;;;5027394;28;20346;-84
2023/09/02 10:17:59;;;;;;;1.70;1.60;;;24.10;91.90;;;;;;5044111;28;20204;-84
2023/09/02 10:20:30;;;;;;;3.03;1.77;;;24.10;91.70;;;;;;5027249;28;20519;-84
2023/09/02 10:23:06;;;;;;;2.45;1.60;;;24.20;91.60;;;;;;5026847;28;20168;-84
2023/09/02 10:26:11;;;;;;;1.73;1.63;;;24.20;91.60;;;;;;5027556;28;20435;-84
2023/09/02 10:28:38;;;;;;;2.70;1.52;;;24.20;91.50;;;;;;5047078;28;20188;-84
2023/09/02 10:31:18;;;;;;;11.07;2.35;;;24.20;92.40;;;;;;5025111;28;20172;-84
2023/09/02 10:33:47;;;;;;;8.35;1.75;;;24.10;96.20;;;;;;5027591;28;20214;-84
2023/09/02 10:36:17;;;;;;;7.60;1.83;;;24.10;97.60;;;;;;5026906;28;20728;-84
2023/09/02 10:38:47;;;;;;;13.68;2.38;;;24.10;98.60;;;;;;5029786;28;20375;-84
2023/09/02 10:41:15;;;;;;;7.93;2.30;;;24.20;99.60;;;;;;5028941;28;20180;-84
2023/09/02 10:43:42;;;;;;;8.23;1.88;;;24.10;99.90;;;;;;5028414;28;20180;-84
2023/09/02 10:46:08;;;;;;;9.75;1.95;;;24.10;99.90;;;;;;5029017;28;20172;-83
2023/09/02 10:48:37;;;;;;;8.00;1.98;;;24.20;99.90;;;;;;5028473;28;20168;-83
2023/09/02 10:51:04;;;;;;;6.67;2.00;;;24.30;99.10;;;;;;5046725;28;20559;-84
2023/09/02 10:53:50;;;;;;;7.90;1.73;;;24.40;98.80;;;;;;5027068;28;20587;-84
2023/09/02 10:56:32;;;;;;;5.80;1.73;;;24.40;98.80;;;;;;5045559;28;20627;-84
2023/09/02 10:58:59;;;;;;;3.23;1.80;;;24.40;98.30;;;;;;5031000;28;20269;-84
2023/09/02 11:01:28;;;;;;;7.20;2.03;;;24.40;98.10;;;;;;5030743;28;20180;-84
2023/09/02 11:03:55;;;;;;;5.33;1.60;;;24.30;98.10;;;;;;5028383;28;20397;-83
2023/09/02 11:06:20;;;;;;;6.87;1.70;;;24.40;98.00;;;;;;5028738;28;20621;-83
2023/09/02 11:09:01;;;;;;;5.20;1.77;;;24.30;98.00;;;;;;5047562;28;20566;-84
2023/09/02 11:12:06;;;;;;;5.03;1.40;;;24.20;98.00;;;;;;5026495;28;20187;-84
2023/09/02 11:14:32;;;;;;;6.60;1.50;;;24.30;98.20;;;;;;5059866;28;20172;-83
2023/09/02 11:17:26;;;;;;;2.60;1.73;;;24.30;98.40;;;;;;5027153;28;20237;-84
2023/09/02 11:20:19;;;;;;;3.90;1.70;;;24.20;98.10;;;;;;5061381;28;20412;-84
2023/09/02 11:22:52;;;;;;;3.63;1.60;;;24.20;98.20;;;;;;5030632;28;20439;-84
2023/09/02 11:25:29;;;;;;;3.90;1.70;;;24.30;98.10;;;;;;5047808;28;20161;-84
2023/09/02 11:28:09;;;;;;;2.17;1.60;;;24.30;97.90;;;;;;5065537;28;20283;-84
2023/09/02 11:30:37;;;;;;;3.50;1.70;;;24.40;97.80;;;;;;5049842;28;20175;-83
2023/09/02 11:33:03;;;;;;;3.30;1.30;;;24.40;97.60;;;;;;5030120;28;20686;-84
2023/09/02 11:35:35;;;;;;;2.87;1.53;;;24.40;97.60;;;;;;5029571;28;20174;-84
2023/09/02 11:38:03;;;;;;;2.30;1.60;;;24.40;97.50;;;;;;5047286;28;20398;-84
2023/09/02 11:40:30;;;;;;;2.30;1.57;;;24.40;97.30;;;;;;5028909;28;20596;-84
2023/09/02 11:43:01;;;;;;;2.20;1.43;;;24.40;97.40;;;;;;5061494;28;20196;-84
2023/09/02 11:45:34;;;;;;;2.97;1.47;;;24.40;97.50;;;;;;5028496;28;20173;-84
2023/09/02 11:48:02;;;;;;;6.80;1.40;;;24.50;97.40;;;;;;5030994;28;20387;-84
2023/09/02 11:50:28;;;;;;;2.87;1.47;;;24.50;97.30;;;;;;5049752;28;20168;-84
2023/09/02 11:52:56;;;;;;;4.13;1.40;;;24.50;97.20;;;;;;5034071;28;20172;-84
2023/09/02 11:55:22;;;;;;;2.60;1.40;;;24.50;97.30;;;;;;5031944;28;20465;-84
2023/09/02 11:57:49;;;;;;;2.60;1.40;;;24.50;97.40;;;;;;5031750;28;20200;-84
2023/09/02 12:00:25;;;;;;;3.40;1.50;;;24.50;97.30;;;;;;5032297;28;20242;-84
2023/09/02 12:02:55;;;;;;;1.50;1.30;;;24.50;97.40;;;;;;5033251;28;20260;-84
2023/09/02 12:05:21;;;;;;;1.70;1.40;;;24.50;97.60;;;;;;5030638;28;20413;-84
2023/09/02 12:07:47;;;;;;;3.00;1.17;;;24.50;97.60;;;;;;5049975;28;20458;-84
2023/09/02 12:10:18;;;;;;;2.83;1.57;;;24.50;97.40;;;;;;5050798;28;20173;-84
2023/09/02 12:12:48;;;;;;;1.60;1.40;;;24.50;97.50;;;;;;5032086;28;20438;-84
2023/09/02 12:15:17;;;;;;;1.40;1.30;;;24.50;97.60;;;;;;5031244;28;20183;-84
2023/09/02 12:17:44;;;;;;;1.33;1.23;;;24.50;97.60;;;;;;5030607;28;20204;-84
2023/09/02 12:20:14;;;;;;;3.57;1.33;;;24.60;97.60;;;;;;5031904;28;20172;-84
2023/09/02 12:22:42;;;;;;;2.03;1.40;;;24.60;97.50;;;;;;5031031;28;20298;-84
2023/09/02 12:25:22;;;;;;;2.40;1.10;;;24.60;97.60;;;;;;5048409;28;20255;-84
2023/09/02 12:27:49;;;;;;;2.30;1.40;;;24.50;97.50;;;;;;5030824;28;20199;-84
2023/09/02 12:30:34;;;;;;;1.40;1.23;;;24.60;97.70;;;;;;5030778;28;20172;-84
2023/09/02 12:33:00;;;;;;;2.53;1.20;;;24.50;97.60;;;;;;5030191;28;20176;-84
2023/09/02 12:35:26;;;;;;;2.30;1.23;;;24.60;97.90;;;;;;5045537;28;20645;-84
2023/09/02 12:38:06;;;;;;;2.03;1.30;;;24.60;97.90;;;;;;5047007;28;20196;-84
2023/09/02 12:40:35;;;;;;;1.83;1.23;;;24.60;97.80;;;;;;5047433;28;20179;-84
2023/09/02 12:43:02;;;;;;;4.03;1.43;;;24.60;97.70;;;;;;5030797;28;20275;-84
2023/09/02 12:45:31;;;;;;;3.57;1.10;;;24.60;97.70;;;;;;5047238;28;20434;-84
2023/09/02 12:48:09;;;;;;;1.50;1.23;;;24.60;97.80;;;;;;5029424;28;20418;-84
2023/09/02 12:50:39;;;;;;;1.33;1.20;;;24.60;97.90;;;;;;5030441;28;20538;-84
2023/09/02 12:53:05;;;;;;;2.80;1.20;;;24.60;97.90;;;;;;5047290;28;20598;-84
2023/09/02 12:55:43;;;;;;;1.40;1.10;;;24.60;97.90;;;;;;5030417;28;20238;-84